首页
METAR-TAF:

METAR-TAF

机场 :

Wheeling - Ohio County Airport

惠灵, 西維吉尼亞州, 美国

纬度: 40-10-13N, 经度: 080-38-40W, 海拔: 364米

当前天气观测

该预报发布于1小时和0分钟前的12:53 UTC
风速10节,风向东转东南
温度 5°C
湿度 45%
气压 1002 hPa
能見度: 16.1公里
少量云层高于12000英尺

METAR: KHLG 151253Z 12010KT 10SM FEW120 05/M06 A2960 RMK AO2 SLP031 T00501061

时间: 08:53 (13:53 UTC)

预报

该预报发布于2小时和27分钟前的11:26 UTC
预报有效从15日的 12点(UTC)到 16日的 12点(UTC)
风速4节,风向东转东南
能見度: 10公里
多云层高于10000英尺
从 15日的 1600点(UTC)
风速12节,风向南转南东,有时为20节阵风
能見度: 10公里
多云层高于8000英尺
从 15日的 1900点(UTC)
风速10节,风向南转西南,有时为18节阵风
能見度: 8.0公里
阴天层高于1000英尺
小雨
从 15日的 2200点(UTC)
风速8节,风向西南
能見度: 3.2公里
阴天层高于800英尺
小雪
从 16日的 0100点(UTC)
风速6节,风向南转西南
能見度: 10公里
多云层高于6000英尺

TAF: KHLG 151126Z 1512/1612 11004KT P6SM BKN100 FM151600 16012G20KT P6SM BKN080 FM151900 20010G18KT 5SM -RA OVC010 FM152200 22008KT 2SM -SN OVC008 FM160100 21006KT P6SM BKN060

超过4000个机场的气象观测和天气预报(METAR&TAF报告)。

可查询的气象台以黄色和红色小点在地图上表示。

将鼠标移到小点上方,可查看气象台名称。

然后点击查看天气观测和预报。

如需切换地图:点击带黑十字的绿色按钮放大地图;点击带横线的绿色按钮缩小地图;或者点击绿色箭头查看邻近地区的地图。


METAR-TAF: